Time;durP1;ratioP1;P1;durP2;ratioP2;P2;SDS_P1;SDS_P2;PMS_P1;PMS_P2;Temp;Humidity;BMP_temperature;BMP_pressure;BME280_temperature;BME280_humidity;BME280_pressure;Samples;Min_cycle;Max_cycle;Signal;HPM_P1;HPM_P2
2023/09/03 00:01:11;;;;;;;0.20;0.20;;;;;;;21.89;51.76;101679.00;4957123;28;20041;-90
2023/09/03 00:03:37;;;;;;;0.20;0.20;;;;;;;21.84;52.51;101685.59;4972855;28;20428;-90
2023/09/03 00:06:03;;;;;;;0.10;0.10;;;;;;;21.83;52.34;101674.22;4940737;28;20034;-90
2023/09/03 00:08:28;;;;;;;0.20;0.20;;;;;;;21.92;51.83;101684.00;4973360;28;20030;-90
2023/09/03 00:10:54;;;;;;;0.20;0.20;;;;;;;21.75;52.67;101680.09;4956589;28;20030;-90
2023/09/03 00:13:20;;;;;;;0.10;0.10;;;;;;;21.73;52.53;101679.38;4973001;28;20033;-90
2023/09/03 00:15:46;;;;;;;0.10;0.10;;;;;;;21.71;52.45;101683.91;4956911;28;20031;-90
2023/09/03 00:18:12;;;;;;;0.20;0.20;;;;;;;21.81;52.69;101681.38;4956148;28;20057;-90
2023/09/03 00:20:40;;;;;;;0.10;0.10;;;;;;;21.73;52.85;101689.09;4956897;28;20037;-90
2023/09/03 00:23:05;;;;;;;0.10;0.10;;;;;;;21.51;53.41;101682.00;4956850;28;20026;-92
2023/09/03 00:25:37;;;;;;;0.20;0.20;;;;;;;21.43;54.02;101681.78;4956477;28;20038;-91
2023/09/03 00:28:03;;;;;;;0.10;0.10;;;;;;;21.43;53.99;101672.13;4956918;28;20031;-90
2023/09/03 00:30:28;;;;;;;0.20;0.20;;;;;;;21.41;53.68;101673.16;4956615;28;20033;-90
2023/09/03 00:32:54;;;;;;;0.10;0.10;;;;;;;21.48;54.12;101680.47;4972579;28;20034;-90
2023/09/03 00:35:20;;;;;;;0.20;0.20;;;;;;;21.52;53.63;101677.59;4956344;28;20038;-91
2023/09/03 00:37:46;;;;;;;0.10;0.10;;;;;;;21.49;54.61;101681.31;4940604;28;20066;-91
2023/09/03 00:40:11;;;;;;;0.10;0.10;;;;;;;21.54;54.06;101673.06;4956614;28;20436;-91
2023/09/03 00:42:37;;;;;;;0.10;0.10;;;;;;;21.52;53.92;101678.44;4955809;28;20030;-91
2023/09/03 00:45:02;;;;;;;0.17;0.17;;;;;;;21.36;54.48;101665.63;4956399;28;20085;-92
2023/09/03 00:47:28;;;;;;;0.10;0.10;;;;;;;21.39;54.40;101670.66;4956086;28;20404;-90
2023/09/03 00:49:53;;;;;;;0.10;0.10;;;;;;;21.42;54.37;101667.78;4972539;28;20489;-91
2023/09/03 00:52:19;;;;;;;0.10;0.10;;;;;;;21.42;54.32;101675.66;4956403;28;20456;-91
2023/09/03 00:54:45;;;;;;;0.10;0.10;;;;;;;21.41;54.17;101673.16;4956558;28;20456;-90
2023/09/03 00:57:10;;;;;;;0.20;0.20;;;;;;;21.51;53.84;101671.50;4956295;28;20481;-90
2023/09/03 00:59:36;;;;;;;0.10;0.10;;;;;;;21.30;54.29;101666.09;4956103;28;20034;-91
2023/09/03 01:02:01;;;;;;;0.13;0.13;;;;;;;21.37;54.50;101677.84;4955890;28;20030;-91
2023/09/03 01:04:27;;;;;;;0.20;0.20;;;;;;;21.21;54.46;101640.47;4956064;28;20031;-90
2023/09/03 01:06:52;;;;;;;0.20;0.20;;;;;;;21.45;53.84;101667.56;4972050;28;20520;-91
2023/09/03 01:09:18;;;;;;;0.20;0.20;;;;;;;21.45;54.30;101667.56;4955624;28;20034;-90
2023/09/03 01:12:02;;;;;;;0.20;0.20;;;;;;;21.40;54.45;101674.97;4955968;28;20085;-92
2023/09/03 01:14:43;;;;;;;0.20;0.20;;;;;;;21.25;55.17;101678.75;4955939;28;20468;-91
2023/09/03 01:17:18;;;;;;;0.13;0.13;;;;;;;21.17;55.26;101670.63;4972801;28;20108;-91
2023/09/03 01:20:05;;;;;;;0.10;0.10;;;;;;;21.18;56.08;101677.56;4971787;28;20564;-90
2023/09/03 01:22:30;;;;;;;0.20;0.20;;;;;;;21.18;55.43;101678.38;4956063;28;20031;-91
2023/09/03 01:25:28;;;;;;;0.10;0.10;;;;;;;21.19;55.26;101684.50;4972909;28;20049;-89
2023/09/03 01:28:11;;;;;;;0.20;0.20;;;;;;;21.06;55.70;101683.75;4958656;28;20050;-91
2023/09/03 01:30:37;;;;;;;0.10;0.10;;;;;;;21.09;55.72;101679.09;4972901;28;20117;-90
2023/09/03 01:33:02;;;;;;;0.10;0.10;;;;;;;21.07;56.01;101672.28;4955835;28;20081;-92
2023/09/03 01:35:28;;;;;;;0.10;0.10;;;;;;;21.01;56.29;101670.94;4955318;28;20030;-91
2023/09/03 01:37:53;;;;;;;0.20;0.20;;;;;;;20.84;56.21;101663.50;4955497;28;20421;-91
2023/09/03 01:40:18;;;;;;;0.10;0.10;;;;;;;20.86;57.01;101678.22;4971838;28;20022;-92
2023/09/03 01:42:44;;;;;;;0.10;0.10;;;;;;;20.94;56.63;101674.16;4955716;28;20031;-93
2023/09/03 01:45:10;;;;;;;0.10;0.10;;;;;;;20.81;56.78;101675.09;4955374;28;20035;-90
2023/09/03 01:47:51;;;;;;;0.10;0.10;;;;;;;20.67;57.03;101656.06;4955544;28;20031;-91
2023/09/03 01:50:23;;;;;;;0.10;0.10;;;;;;;20.73;57.43;101671.34;4971869;28;20073;-91
2023/09/03 01:53:04;;;;;;;0.10;0.10;;;;;;;20.58;57.19;101642.66;4972661;28;20061;-89
2023/09/03 01:55:32;;;;;;;0.10;0.10;;;;;;;20.52;57.24;101634.38;4957095;28;20573;-91
2023/09/03 01:57:59;;;;;;;0.10;0.10;;;;;;;20.79;57.25;101669.13;4959533;28;20480;-90
2023/09/03 02:00:26;;;;;;;0.10;0.10;;;;;;;20.80;57.02;101668.16;4959337;28;20181;-92
2023/09/03 02:02:51;;;;;;;0.10;0.10;;;;;;;20.78;57.03;101663.97;4959371;28;20038;-90
2023/09/03 02:05:17;;;;;;;0.10;0.10;;;;;;;20.67;57.58;101664.78;4975157;28;20054;-90
2023/09/03 02:07:42;;;;;;;0.10;0.10;;;;;;;20.68;57.48;101668.25;4959398;28;20027;-91
2023/09/03 02:10:08;;;;;;;0.10;0.10;;;;;;;20.66;57.70;101671.00;4959186;28;20404;-90
2023/09/03 02:12:33;;;;;;;0.20;0.20;;;;;;;20.57;57.35;101640.13;4975295;28;20033;-90
2023/09/03 02:14:59;;;;;;;0.20;0.20;;;;;;;20.68;57.54;101663.84;4958796;28;20031;-89
2023/09/03 02:17:26;;;;;;;0.10;0.10;;;;;;;20.72;57.22;101662.63;4958868;28;20035;-90
2023/09/03 02:19:52;;;;;;;0.10;0.10;;;;;;;20.68;57.47;101663.84;4974800;28;20456;-91
2023/09/03 02:22:18;;;;;;;0.20;0.20;;;;;;;20.67;57.71;101664.78;4942871;28;20030;-89
2023/09/03 02:24:44;;;;;;;0.20;0.20;;;;;;;20.61;57.77;101668.69;4958773;28;20045;-91
2023/09/03 02:27:09;;;;;;;0.20;0.20;;;;;;;20.47;58.04;101660.19;4958577;28;20526;-90
2023/09/03 02:29:35;;;;;;;0.20;0.20;;;;;;;20.51;58.14;101662.44;4942593;28;20033;-90
2023/09/03 02:32:01;;;;;;;0.20;0.20;;;;;;;20.34;58.53;101649.69;4958932;28;20033;-90
2023/09/03 02:34:26;;;;;;;0.10;0.10;;;;;;;20.42;58.34;101665.72;4974773;28;20504;-91
2023/09/03 02:36:52;;;;;;;0.20;0.20;;;;;;;20.48;58.08;101670.56;4958765;28;20409;-90
2023/09/03 02:39:17;;;;;;;0.20;0.20;;;;;;;20.46;57.95;101669.03;4958997;28;20034;-90
2023/09/03 02:41:43;;;;;;;0.20;0.20;;;;;;;20.54;58.11;101659.59;4974850;28;20034;-90
2023/09/03 02:44:09;;;;;;;0.20;0.20;;;;;;;20.58;58.07;101662.84;4958290;28;20031;-92
2023/09/03 02:46:35;;;;;;;0.10;0.10;;;;;;;20.47;58.54;101660.19;4958671;28;20031;-91
2023/09/03 02:49:00;;;;;;;0.20;0.20;;;;;;;20.48;58.73;101652.19;4958756;28;20039;-91
2023/09/03 02:51:26;;;;;;;0.20;0.20;;;;;;;20.54;58.43;101658.75;4958567;28;20677;-91
2023/09/03 02:53:51;;;;;;;0.20;0.20;;;;;;;20.40;58.47;101658.91;4958248;28;20031;-92
2023/09/03 02:56:17;;;;;;;0.20;0.20;;;;;;;20.39;58.47;101655.44;4958416;28;20061;-90
2023/09/03 02:58:42;;;;;;;0.20;0.20;;;;;;;20.38;58.34;101659.03;4958165;28;20404;-91
2023/09/03 03:01:09;;;;;;;0.20;0.20;;;;;;;20.25;59.18;101663.50;4958339;28;20066;-89
2023/09/03 03:03:34;;;;;;;0.10;0.10;;;;;;;20.16;59.24;101653.69;4958327;28;20081;-91
2023/09/03 03:06:00;;;;;;;0.20;0.20;;;;;;;20.16;59.36;101662.41;4957968;28;20030;-90
2023/09/03 03:08:26;;;;;;;0.20;0.20;;;;;;;20.22;59.09;101648.81;4942354;28;20030;-91
2023/09/03 03:10:51;;;;;;;0.20;0.20;;;;;;;20.17;59.03;101658.81;4958175;28;20031;-91
2023/09/03 03:13:17;;;;;;;0.10;0.10;;;;;;;20.10;59.15;101656.75;4957932;28;20409;-90
2023/09/03 03:15:42;;;;;;;0.10;0.10;;;;;;;20.04;59.49;101661.47;4958136;28;20038;-91
2023/09/03 03:18:08;;;;;;;0.10;0.10;;;;;;;19.97;60.05;101656.81;4973791;28;20053;-91
2023/09/03 03:20:34;;;;;;;0.20;0.20;;;;;;;19.88;59.97;101654.84;4958296;28;20023;-92
2023/09/03 03:22:59;;;;;;;0.20;0.20;;;;;;;19.87;60.06;101661.03;4975197;28;20039;-91
2023/09/03 03:25:25;;;;;;;0.20;0.20;;;;;;;19.91;59.65;101644.09;4974224;28;20035;-90
2023/09/03 03:27:50;;;;;;;0.10;0.10;;;;;;;19.90;60.18;101671.31;4973694;28;20031;-91
2023/09/03 03:30:16;;;;;;;0.20;0.20;;;;;;;19.68;60.22;101640.50;4957693;28;20030;-91
2023/09/03 03:32:41;;;;;;;0.20;0.20;;;;;;;19.80;60.43;101667.66;4974888;28;20031;-90
2023/09/03 03:35:07;;;;;;;0.20;0.20;;;;;;;19.87;60.13;101656.63;4973909;28;20027;-92
2023/09/03 03:37:32;;;;;;;0.20;0.20;;;;;;;20.03;59.64;101672.09;4957793;28;20034;-90
2023/09/03 03:39:58;;;;;;;0.10;0.10;;;;;;;19.92;59.62;101658.91;4957828;28;20507;-91
2023/09/03 03:42:24;;;;;;;0.20;0.20;;;;;;;19.93;59.82;101661.41;4957868;28;20412;-91
2023/09/03 03:44:49;;;;;;;0.20;0.20;;;;;;;19.96;59.08;101655.09;4957489;28;20081;-90
2023/09/03 03:47:15;;;;;;;0.20;0.20;;;;;;;19.89;59.37;101674.91;4957456;28;20034;-91
2023/09/03 03:49:40;;;;;;;0.20;0.20;;;;;;;19.86;59.60;101668.09;4957473;28;20035;-91
2023/09/03 03:52:05;;;;;;;0.20;0.20;;;;;;;19.76;60.04;101664.41;4957430;28;20417;-91
2023/09/03 03:54:31;;;;;;;0.20;0.20;;;;;;;19.74;60.15;101675.03;4973761;28;20101;-91
2023/09/03 03:56:56;;;;;;;0.20;0.20;;;;;;;19.70;60.27;101673.56;4957035;28;20035;-90
2023/09/03 03:59:22;;;;;;;0.20;0.20;;;;;;;19.78;60.15;101675.66;4957324;28;20484;-91
2023/09/03 04:01:48;;;;;;;0.17;0.17;;;;;;;19.71;60.30;101677.03;4957286;28;20031;-90
2023/09/03 04:04:14;;;;;;;0.10;0.10;;;;;;;19.75;59.91;101681.94;4957780;28;20039;-91
2023/09/03 04:06:39;;;;;;;0.20;0.20;;;;;;;19.81;59.95;101677.22;4957158;28;20027;-91
2023/09/03 04:09:05;;;;;;;0.10;0.10;;;;;;;19.79;59.99;101681.75;4957075;28;20031;-91
2023/09/03 04:11:30;;;;;;;0.10;0.10;;;;;;;19.80;59.73;101672.91;4957112;28;20038;-91
2023/09/03 04:13:56;;;;;;;0.10;0.10;;;;;;;19.87;59.60;101685.50;4973203;28;20097;-90
2023/09/03 04:16:22;;;;;;;0.20;0.20;;;;;;;19.88;59.23;101684.56;4959034;28;20027;-89
2023/09/03 04:18:49;;;;;;;0.10;0.10;;;;;;;19.80;59.81;101672.91;4972121;28;20053;-91
2023/09/03 04:21:14;;;;;;;0.20;0.20;;;;;;;19.77;59.49;101671.38;4941081;28;20027;-91
2023/09/03 04:23:39;;;;;;;0.15;0.15;;;;;;;19.84;59.64;101677.00;4972670;28;20038;-90
2023/09/03 04:26:05;;;;;;;0.20;0.20;;;;;;;19.86;59.28;101675.09;4956879;28;20031;-91
2023/09/03 04:28:30;;;;;;;0.20;0.20;;;;;;;19.83;59.75;101684.03;4972888;28;20093;-92
2023/09/03 04:30:59;;;;;;;0.20;0.20;;;;;;;19.74;59.84;101671.56;4940797;28;20035;-92
2023/09/03 04:33:24;;;;;;;0.10;0.10;;;;;;;19.73;60.46;101680.38;4957035;28;20027;-90
2023/09/03 04:36:00;;;;;;;0.10;0.10;;;;;;;19.83;60.01;101691.06;4956974;28;20027;-91
2023/09/03 04:38:27;;;;;;;0.10;0.10;;;;;;;19.82;59.77;101678.91;4940765;28;20118;-91
2023/09/03 04:40:52;;;;;;;0.20;0.20;;;;;;;19.90;59.80;101681.81;4956982;28;20448;-91
2023/09/03 04:43:18;;;;;;;0.20;0.20;;;;;;;20.02;59.38;101696.69;4956610;28;20031;-91
2023/09/03 04:45:51;;;;;;;0.20;0.20;;;;;;;20.01;59.28;101685.34;4956462;28;20038;-90
2023/09/03 04:48:16;;;;;;;0.20;0.20;;;;;;;20.18;58.67;101689.41;4956795;28;20617;-90
2023/09/03 04:50:42;;;;;;;0.17;0.17;;;;;;;20.19;58.44;101688.44;4956205;28;20030;-91
2023/09/03 04:53:07;;;;;;;0.20;0.20;;;;;;;20.13;58.63;101688.88;4956139;28;20671;-91
2023/09/03 04:55:33;;;;;;;0.20;0.20;;;;;;;20.19;58.51;101684.97;4956383;28;20035;-91
2023/09/03 04:57:59;;;;;;;0.20;0.20;;;;;;;20.16;58.62;101680.78;4956390;28;20055;-92
2023/09/03 05:00:24;;;;;;;0.20;0.20;;;;;;;20.09;59.22;101676.94;4956308;28;20081;-93
2023/09/03 05:02:50;;;;;;;0.10;0.10;;;;;;;20.11;59.10;101676.81;4956248;28;20022;-90
2023/09/03 05:05:17;;;;;;;0.10;0.10;;;;;;;20.15;59.16;101676.47;4940390;28;20031;-91
2023/09/03 05:07:43;;;;;;;0.20;0.20;;;;;;;20.16;58.99;101682.59;4956493;28;20486;-90
2023/09/03 05:10:09;;;;;;;0.20;0.20;;;;;;;20.21;59.00;101673.41;4972313;28;20066;-90
2023/09/03 05:12:34;;;;;;;0.20;0.20;;;;;;;20.26;58.92;101676.53;4956263;28;20505;-91
2023/09/03 05:14:59;;;;;;;0.17;0.17;;;;;;;20.21;59.35;101672.56;4956327;28;20034;-91
2023/09/03 05:17:25;;;;;;;0.10;0.10;;;;;;;20.23;59.27;101673.28;4956669;28;20034;-91
2023/09/03 05:19:50;;;;;;;0.10;0.10;;;;;;;20.25;59.47;101672.22;4956178;28;20058;-91
2023/09/03 05:22:16;;;;;;;0.10;0.10;;;;;;;20.32;59.21;101678.69;4971929;28;20034;-90
2023/09/03 05:24:42;;;;;;;0.20;0.20;;;;;;;20.34;59.33;101684.69;4956033;28;20034;-91
2023/09/03 05:27:08;;;;;;;0.20;0.20;;;;;;;20.45;59.20;101688.34;4955999;28;20027;-91
2023/09/03 05:29:33;;;;;;;0.10;0.10;;;;;;;20.43;59.85;101685.00;4955804;28;20023;-93
2023/09/03 05:31:58;;;;;;;0.20;0.20;;;;;;;20.52;59.36;101676.44;4955789;28;20066;-92
2023/09/03 05:34:25;;;;;;;0.20;0.20;;;;;;;20.49;59.56;101674.03;4955451;28;20023;-91
2023/09/03 05:36:50;;;;;;;0.20;0.20;;;;;;;20.58;59.88;101678.63;4955553;28;20031;-91
2023/09/03 05:39:16;;;;;;;0.20;0.20;;;;;;;20.77;59.56;101678.09;4955717;28;20555;-91
2023/09/03 05:41:41;;;;;;;0.20;0.20;;;;;;;20.87;59.18;101674.63;4955800;28;20487;-89
2023/09/03 05:44:09;;;;;;;0.20;0.20;;;;;;;20.95;59.19;101681.97;4955709;28;20026;-92
2023/09/03 05:46:35;;;;;;;0.20;0.20;;;;;;;21.03;59.15;101690.06;4971844;28;20034;-92
2023/09/03 05:49:00;;;;;;;0.20;0.20;;;;;;;21.18;58.85;101688.91;4955982;28;20086;-91
2023/09/03 05:51:26;;;;;;;0.10;0.10;;;;;;;21.27;58.32;101676.88;4955411;28;20432;-91
2023/09/03 05:53:51;;;;;;;0.15;0.15;;;;;;;21.32;58.28;101687.88;4955635;28;20042;-91
2023/09/03 05:56:17;;;;;;;0.10;0.10;;;;;;;21.41;58.19;101704.75;4971634;28;20089;-93
2023/09/03 05:58:42;;;;;;;0.20;0.20;;;;;;;21.50;58.13;101704.03;4939559;28;20031;-92
2023/09/03 06:01:09;;;;;;;0.13;0.13;;;;;;;21.58;57.57;101708.72;4955563;28;20412;-92
2023/09/03 06:03:35;;;;;;;0.10;0.10;;;;;;;21.64;57.54;101700.34;4955818;28;20038;-92
2023/09/03 06:06:04;;;;;;;0.20;0.20;;;;;;;21.71;57.38;101706.78;4971189;28;20087;-93
2023/09/03 06:08:30;;;;;;;0.20;0.20;;;;;;;21.78;57.41;101705.34;4955512;28;20056;-92
2023/09/03 06:10:56;;;;;;;0.20;0.20;;;;;;;21.85;57.00;101701.28;4955616;28;20037;-91
2023/09/03 06:13:28;;;;;;;0.10;0.10;;;;;;;22.03;56.42;101701.63;4955547;28;20037;-91
2023/09/03 06:15:54;;;;;;;0.10;0.10;;;;;;;22.20;56.10;101705.53;4939719;28;20062;-91
2023/09/03 06:18:19;;;;;;;0.20;0.20;;;;;;;22.33;55.72;101709.69;4955028;28;20156;-91
2023/09/03 06:20:45;;;;;;;0.20;0.20;;;;;;;22.40;56.09;101709.19;4971125;28;20571;-91
2023/09/03 06:23:15;;;;;;;0.10;0.10;;;;;;;22.53;55.62;101713.34;4955110;28;20035;-91
2023/09/03 06:25:41;;;;;;;0.20;0.20;;;;;;;22.60;55.73;101711.03;4956602;28;20031;-92
2023/09/03 06:28:07;;;;;;;0.20;0.20;;;;;;;22.68;55.40;101713.03;4955413;28;20034;-92
2023/09/03 06:30:32;;;;;;;0.20;0.20;;;;;;;22.81;54.81;101708.41;4971234;28;20035;-91
2023/09/03 06:32:57;;;;;;;0.10;0.10;;;;;;;22.89;54.62;101706.81;4955353;28;20030;-90
2023/09/03 06:35:23;;;;;;;0.20;0.20;;;;;;;23.03;54.82;101710.97;4955040;28;20034;-91
2023/09/03 06:37:49;;;;;;;0.20;0.20;;;;;;;23.12;54.18;101710.19;4955397;28;20035;-91
2023/09/03 06:40:15;;;;;;;0.20;0.20;;;;;;;23.24;54.22;101699.53;4955136;28;20481;-92
2023/09/03 06:42:41;;;;;;;0.13;0.13;;;;;;;23.31;53.97;101708.63;4958307;28;20433;-92
2023/09/03 06:45:07;;;;;;;0.10;0.10;;;;;;;23.33;53.75;101704.03;4959051;28;20030;-92
2023/09/03 06:47:33;;;;;;;0.10;0.10;;;;;;;23.44;53.60;101710.06;4958831;28;20031;-91
2023/09/03 06:49:58;;;;;;;0.20;0.20;;;;;;;23.68;52.94;101714.22;4958853;28;20589;-92
2023/09/03 06:52:23;;;;;;;0.20;0.20;;;;;;;23.77;52.76;101704.66;4958857;28;20089;-92
2023/09/03 06:54:49;;;;;;;0.20;0.20;;;;;;;23.88;53.08;101704.53;4958289;28;20042;-91
2023/09/03 06:57:15;;;;;;;0.20;0.20;;;;;;;23.94;52.50;101693.44;4958708;28;20027;-92
2023/09/03 06:59:41;;;;;;;0.20;0.20;;;;;;;24.19;52.32;101711.44;4974886;28;20026;-92
2023/09/03 07:02:06;;;;;;;0.20;0.20;;;;;;;24.37;51.77;101711.59;4975512;28;20031;-91
2023/09/03 07:04:32;;;;;;;0.13;0.13;;;;;;;24.46;51.57;101715.22;4974175;28;20026;-92
2023/09/03 07:06:57;;;;;;;0.20;0.20;;;;;;;24.53;51.05;101711.06;4958223;28;20033;-91
2023/09/03 07:09:23;;;;;;;0.20;0.20;;;;;;;24.52;51.40;101704.94;4958430;28;20042;-93
2023/09/03 07:11:48;;;;;;;0.20;0.20;;;;;;;24.70;50.59;101723.59;4974583;28;20421;-91
2023/09/03 07:14:14;;;;;;;0.20;0.20;;;;;;;24.75;50.00;101724.00;4958406;28;20409;-91
2023/09/03 07:16:39;;;;;;;0.20;0.20;;;;;;;24.80;50.26;101727.06;4974518;28;20038;-93
2023/09/03 07:19:04;;;;;;;0.20;0.20;;;;;;;24.91;50.41;101731.38;4957699;28;20059;-92
2023/09/03 07:21:30;;;;;;;0.20;0.20;;;;;;;25.04;49.97;101717.84;4958327;28;20480;-92
2023/09/03 07:23:56;;;;;;;0.20;0.20;;;;;;;25.17;49.85;101713.06;4958117;28;20492;-92
2023/09/03 07:26:21;;;;;;;0.20;0.20;;;;;;;25.33;49.02;101718.59;4958287;28;20041;-92
2023/09/03 07:28:47;;;;;;;0.20;0.20;;;;;;;25.42;48.74;101715.09;4957933;28;20030;-93
2023/09/03 07:31:12;;;;;;;0.20;0.20;;;;;;;25.49;48.79;101725.13;4974104;28;20027;-91
2023/09/03 07:33:40;;;;;;;0.20;0.20;;;;;;;25.65;48.07;101720.00;4957829;28;20034;-92
2023/09/03 07:36:10;;;;;;;0.20;0.20;;;;;;;25.76;48.11;101721.66;4958541;28;20030;-92
2023/09/03 07:38:37;;;;;;;0.20;0.20;;;;;;;25.69;47.43;101711.63;4958208;28;20046;-91
2023/09/03 07:41:02;;;;;;;0.20;0.20;;;;;;;25.97;47.37;101709.00;4957911;28;20038;-93
2023/09/03 07:43:29;;;;;;;0.20;0.20;;;;;;;26.08;47.18;101711.44;4957725;28;20488;-90
2023/09/03 07:45:54;;;;;;;0.20;0.20;;;;;;;26.15;47.63;101698.41;4957715;28;20069;-91
2023/09/03 07:48:20;;;;;;;0.20;0.20;;;;;;;26.19;47.82;101684.69;4957409;28;20027;-93
2023/09/03 07:50:45;;;;;;;0.20;0.20;;;;;;;26.37;47.17;101711.25;4973755;28;20058;-92
2023/09/03 07:53:11;;;;;;;0.20;0.20;;;;;;;26.36;47.29;101698.97;4957176;28;20038;-91
2023/09/03 07:55:36;;;;;;;0.20;0.20;;;;;;;26.53;47.08;101707.91;4973424;28;20035;-93
2023/09/03 07:58:02;;;;;;;0.20;0.20;;;;;;;26.56;46.98;101711.09;4973738;28;20038;-92
2023/09/03 08:00:27;;;;;;;0.20;0.20;;;;;;;26.62;46.85;101709.63;4957455;28;20039;-92
2023/09/03 08:02:53;;;;;;;0.20;0.20;;;;;;;26.65;47.86;101708.53;4956929;28;20408;-90
2023/09/03 08:05:18;;;;;;;0.20;0.20;;;;;;;26.88;46.95;101715.81;4973216;28;20056;-89
2023/09/03 08:07:45;;;;;;;0.20;0.20;;;;;;;26.98;46.94;101705.09;4956926;28;20035;-90
2023/09/03 08:10:11;;;;;;;0.20;0.20;;;;;;;27.09;46.94;101702.22;4973441;28;20035;-92
2023/09/03 08:12:36;;;;;;;0.20;0.20;;;;;;;27.12;46.37;101701.91;4957181;28;20027;-92
2023/09/03 08:15:03;;;;;;;0.20;0.20;;;;;;;27.23;46.12;101697.31;4957140;28;20051;-91
2023/09/03 08:17:32;;;;;;;0.20;0.20;;;;;;;27.34;46.54;101689.09;4972754;28;20030;-92
2023/09/03 08:19:58;;;;;;;0.20;0.20;;;;;;;27.52;45.86;101692.47;4941655;28;20502;-92
2023/09/03 08:22:23;;;;;;;0.17;0.17;;;;;;;27.70;45.09;101687.91;4956963;28;20049;-92
2023/09/03 08:24:48;;;;;;;0.20;0.20;;;;;;;27.65;44.85;101662.78;4972890;28;20023;-92
2023/09/03 08:27:14;;;;;;;0.20;0.20;;;;;;;27.85;45.08;101682.00;4956683;28;20531;-93
2023/09/03 08:29:39;;;;;;;0.20;0.20;;;;;;;27.93;44.23;101663.41;4957050;28;20456;-93
2023/09/03 08:32:05;;;;;;;0.20;0.20;;;;;;;28.05;43.74;101672.72;4972718;28;20183;-92
2023/09/03 08:34:31;;;;;;;0.20;0.20;;;;;;;28.19;44.12;101671.22;4972695;28;20062;-93
2023/09/03 08:36:56;;;;;;;0.20;0.20;;;;;;;28.35;42.70;101667.78;4956594;28;20429;-92
2023/09/03 08:39:22;;;;;;;0.20;0.20;;;;;;;28.39;42.54;101667.28;4957387;28;20034;-91
2023/09/03 08:41:47;;;;;;;0.20;0.20;;;;;;;28.48;42.68;101662.78;4972450;28;20038;-92
2023/09/03 08:44:27;;;;;;;0.20;0.20;;;;;;;28.64;42.53;101657.47;4956773;28;20081;-93
2023/09/03 08:46:53;;;;;;;0.20;0.20;;;;;;;28.73;42.02;101629.81;4956448;28;20081;-92
2023/09/03 08:49:18;;;;;;;0.20;0.20;;;;;;;28.95;40.94;101654.09;4957944;28;20121;-93
2023/09/03 08:51:44;;;;;;;0.20;0.20;;;;;;;28.91;40.93;101650.97;4956699;28;20038;-93
2023/09/03 08:54:09;;;;;;;0.20;0.20;;;;;;;28.93;40.73;101645.47;4972647;28;20023;-93
2023/09/03 08:56:35;;;;;;;0.20;0.20;;;;;;;29.05;40.56;101649.41;4956479;28;20037;-93
2023/09/03 08:59:00;;;;;;;0.20;0.20;;;;;;;29.15;40.51;101634.06;4956350;28;20054;-92
2023/09/03 09:01:26;;;;;;;0.20;0.20;;;;;;;29.40;39.46;101627.63;4972376;28;20035;-91
2023/09/03 09:03:54;;;;;;;0.20;0.20;;;;;;;29.51;39.19;101633.63;4955745;28;20033;-93
2023/09/03 09:06:19;;;;;;;0.20;0.20;;;;;;;29.57;39.32;101627.56;4956663;28;20535;-93
2023/09/03 09:08:45;;;;;;;0.20;0.20;;;;;;;29.61;39.24;101605.72;4956238;28;20034;-93
2023/09/03 09:11:15;;;;;;;0.20;0.20;;;;;;;29.86;38.55;101617.03;4973095;28;20053;-92
2023/09/03 09:13:43;;;;;;;0.20;0.20;;;;;;;29.91;38.61;101620.03;4956044;28;20492;-91
2023/09/03 09:16:08;;;;;;;0.20;0.20;;;;;;;29.95;36.83;101610.66;4956135;28;20033;-91
2023/09/03 09:18:34;;;;;;;0.20;0.20;;;;;;;30.06;35.82;101613.91;4955948;28;20051;-91
2023/09/03 09:21:00;;;;;;;0.20;0.20;;;;;;;30.22;35.17;101611.13;4956227;28;20060;-92
2023/09/03 09:23:26;;;;;;;0.20;0.20;;;;;;;30.39;35.16;101623.34;4956586;28;20413;-92
2023/09/03 09:25:53;;;;;;;0.20;0.20;;;;;;;30.45;35.50;101611.91;4956032;28;20038;-93
2023/09/03 09:28:19;;;;;;;0.20;0.20;;;;;;;30.53;35.88;101619.84;4940027;28;20027;-93
2023/09/03 09:30:58;;;;;;;0.20;0.20;;;;;;;30.45;35.66;101611.91;4956390;28;20035;-93
2023/09/03 09:33:23;;;;;;;0.20;0.20;;;;;;;30.40;37.07;101594.81;4956463;28;20037;-93
2023/09/03 09:35:49;;;;;;;0.20;0.20;;;;;;;30.52;37.00;101596.84;4956229;28;20035;-92
2023/09/03 09:38:15;;;;;;;0.20;0.20;;;;;;;30.76;36.38;101603.78;4956088;28;20027;-92
2023/09/03 09:40:40;;;;;;;0.20;0.20;;;;;;;30.88;36.19;101601.50;4972091;28;20038;-92
2023/09/03 09:43:07;;;;;;;0.20;0.20;;;;;;;30.97;34.83;101599.53;4971550;28;20030;-93
2023/09/03 09:45:53;;;;;;;0.20;0.20;;;;;;;31.08;34.22;101599.91;4956570;28;20106;-92
2023/09/03 09:48:18;;;;;;;0.20;0.20;;;;;;;31.13;34.46;101602.00;4971406;28;20043;-93
2023/09/03 09:50:46;;;;;;;0.20;0.20;;;;;;;31.27;33.11;101598.53;4956467;28;20042;-91
2023/09/03 09:53:27;;;;;;;0.20;0.20;;;;;;;31.55;32.84;101593.28;4972636;28;20024;-93
2023/09/03 09:56:09;;;;;;;0.20;0.20;;;;;;;31.64;32.45;101589.47;4972170;28;20066;-93
2023/09/03 09:58:36;;;;;;;0.20;0.20;;;;;;;31.64;32.20;101577.94;4972442;28;20051;-93
2023/09/03 10:01:01;;;;;;;0.20;0.20;;;;;;;31.59;32.50;101575.84;4972467;28;20489;-92
2023/09/03 10:03:42;;;;;;;0.20;0.20;;;;;;;31.74;32.61;101572.28;4955758;28;20035;-91
2023/09/03 10:06:08;;;;;;;0.20;0.20;;;;;;;31.86;32.33;101574.28;4972345;28;20030;-93
2023/09/03 10:08:34;;;;;;;0.20;0.20;;;;;;;32.07;32.00;101569.94;4956496;28;20386;-92
2023/09/03 10:11:00;;;;;;;0.22;0.22;;;;;;;32.09;31.25;101558.00;4955973;28;20027;-93
2023/09/03 10:13:25;;;;;;;0.20;0.20;;;;;;;32.34;31.22;101553.06;4971917;28;20035;-92
2023/09/03 10:15:50;;;;;;;0.20;0.20;;;;;;;32.47;30.83;101546.97;4971846;28;20022;-93
2023/09/03 10:18:16;;;;;;;0.20;0.20;;;;;;;32.21;31.11;101524.31;4958713;28;20050;-91
2023/09/03 10:20:41;;;;;;;0.20;0.20;;;;;;;32.55;31.79;101541.47;4943754;28;20030;-92
2023/09/03 10:23:07;;;;;;;0.20;0.20;;;;;;;32.82;31.30;101537.03;4959534;28;20477;-93
2023/09/03 10:25:33;;;;;;;0.20;0.20;;;;;;;32.89;31.03;101537.13;4959807;28;20039;-93
2023/09/03 10:28:02;;;;;;;0.20;0.20;;;;;;;32.99;30.88;101527.66;4959624;28;20039;-92
2023/09/03 10:30:30;;;;;;;0.20;0.20;;;;;;;32.96;30.14;101543.34;4976317;28;20465;-93
2023/09/03 10:32:56;;;;;;;0.20;0.20;;;;;;;32.95;30.35;101530.97;4960136;28;20109;-92
2023/09/03 10:35:21;;;;;;;0.20;0.20;;;;;;;33.02;30.20;101521.91;4958935;28;20030;-93
2023/09/03 10:37:50;;;;;;;0.20;0.20;;;;;;;33.09;29.55;101500.47;4975193;28;20105;-94
2023/09/03 10:40:26;;;;;;;0.30;0.30;;;;;;;33.34;28.39;101515.00;4975971;28;20033;-93
2023/09/03 10:42:52;;;;;;;0.30;0.30;;;;;;;33.34;28.03;101503.44;4974891;28;20034;-92
2023/09/03 10:45:18;;;;;;;0.20;0.20;;;;;;;33.30;28.25;101492.28;4975923;28;20023;-92
2023/09/03 10:48:03;;;;;;;0.20;0.20;;;;;;;33.37;28.64;101524.50;4975995;28;20134;-92
2023/09/03 10:50:55;;;;;;;0.20;0.20;;;;;;;33.43;28.06;101510.25;4942784;28;20031;-92
2023/09/03 10:53:39;;;;;;;;;;;;;;;33.77;27.68;101511.97;4972089;28;20047;-93
2023/09/03 10:56:10;;;;;;;0.30;0.30;;;;;;;33.73;28.51;101509.88;4975509;28;19921;-92
2023/09/03 11:01:26;;;;;;;0.20;0.20;;;;;;;34.22;27.40;101504.09;4961514;28;20081;-93
2023/09/03 11:03:52;;;;;;;0.20;0.20;;;;;;;34.26;27.16;101497.28;4975871;28;20114;-93
2023/09/03 11:06:25;;;;;;;0.20;0.20;;;;;;;34.40;26.47;101506.97;4958901;28;20489;-93
2023/09/03 11:08:59;;;;;;;0.20;0.20;;;;;;;34.52;26.33;101492.91;4942991;28;20130;-93
2023/09/03 11:11:27;;;;;;;0.30;0.30;;;;;;;34.13;26.39;101487.38;4974956;28;20433;-91
2023/09/03 11:13:52;;;;;;;0.20;0.20;;;;;;;34.25;26.25;101487.56;4942708;28;20058;-93
2023/09/03 11:16:25;;;;;;;0.20;0.20;;;;;;;34.10;25.79;101487.78;4958213;28;20062;-93
2023/09/03 11:18:50;;;;;;;0.20;0.20;;;;;;;33.93;25.13;101476.69;4943152;28;20426;-92
2023/09/03 11:21:16;;;;;;;0.22;0.22;;;;;;;33.85;24.96;101474.19;4975887;28;20027;-93
2023/09/03 11:24:18;;;;;;;0.30;0.30;;;;;;;33.83;25.43;101481.63;4958695;28;20046;-91
2023/09/03 11:26:44;;;;;;;0.30;0.30;;;;;;;33.73;25.52;101478.53;4919131;29;20035;-92